sensor_id;sensor_type;location;lat;lon;timestamp;temperature;humidity
27492;DHT22;14927;51.210;6.838;2022-11-04T00:01:24;16.10;62.60
27492;DHT22;14927;51.210;6.838;2022-11-04T00:04:09;16.10;62.40
27492;DHT22;14927;51.210;6.838;2022-11-04T00:06:56;16.00;62.20
27492;DHT22;14927;51.210;6.838;2022-11-04T00:09:40;16.00;62.10
27492;DHT22;14927;51.210;6.838;2022-11-04T00:12:25;16.00;62.00
27492;DHT22;14927;51.210;6.838;2022-11-04T00:15:09;16.00;62.00
27492;DHT22;14927;51.210;6.838;2022-11-04T00:18:12;15.90;61.90
27492;DHT22;14927;51.210;6.838;2022-11-04T00:20:57;16.00;62.00
27492;DHT22;14927;51.210;6.838;2022-11-04T00:24:00;15.90;61.90
27492;DHT22;14927;51.210;6.838;2022-11-04T00:27:05;15.90;62.00
27492;DHT22;14927;51.210;6.838;2022-11-04T00:30:09;15.80;62.00
27492;DHT22;14927;51.210;6.838;2022-11-04T00:32:54;15.80;62.00
27492;DHT22;14927;51.210;6.838;2022-11-04T00:35:57;15.80;61.90
27492;DHT22;14927;51.210;6.838;2022-11-04T00:38:42;15.80;61.90
27492;DHT22;14927;51.210;6.838;2022-11-04T00:41:26;15.70;61.80
27492;DHT22;14927;51.210;6.838;2022-11-04T00:44:12;15.70;61.90
27492;DHT22;14927;51.210;6.838;2022-11-04T00:46:56;15.70;62.00
27492;DHT22;14927;51.210;6.838;2022-11-04T00:49:41;15.60;62.90
27492;DHT22;14927;51.210;6.838;2022-11-04T00:52:26;15.60;62.20
27492;DHT22;14927;51.210;6.838;2022-11-04T00:55:10;15.60;62.40
27492;DHT22;14927;51.210;6.838;2022-11-04T00:57:56;15.60;62.60
27492;DHT22;14927;51.210;6.838;2022-11-04T01:00:41;15.60;62.80
27492;DHT22;14927;51.210;6.838;2022-11-04T01:03:26;15.60;63.00
27492;DHT22;14927;51.210;6.838;2022-11-04T01:06:11;15.60;63.40
27492;DHT22;14927;51.210;6.838;2022-11-04T01:09:00;15.60;63.80
27492;DHT22;14927;51.210;6.838;2022-11-04T01:11:47;15.60;64.10
27492;DHT22;14927;51.210;6.838;2022-11-04T01:14:31;15.60;65.00
27492;DHT22;14927;51.210;6.838;2022-11-04T01:17:16;15.60;64.30
27492;DHT22;14927;51.210;6.838;2022-11-04T01:20:01;15.60;64.30
27492;DHT22;14927;51.210;6.838;2022-11-04T01:22:45;15.50;64.20
27492;DHT22;14927;51.210;6.838;2022-11-04T01:25:30;15.50;64.40
27492;DHT22;14927;51.210;6.838;2022-11-04T01:28:15;15.50;64.40
27492;DHT22;14927;51.210;6.838;2022-11-04T01:31:08;15.50;64.50
27492;DHT22;14927;51.210;6.838;2022-11-04T01:33:54;15.50;64.60
27492;DHT22;14927;51.210;6.838;2022-11-04T01:36:39;15.50;64.50
27492;DHT22;14927;51.210;6.838;2022-11-04T01:39:24;15.50;64.40
27492;DHT22;14927;51.210;6.838;2022-11-04T01:42:12;15.50;64.40
27492;DHT22;14927;51.210;6.838;2022-11-04T01:44:59;15.40;65.10
27492;DHT22;14927;51.210;6.838;2022-11-04T01:50:44;15.40;64.20
27492;DHT22;14927;51.210;6.838;2022-11-04T01:53:36;15.40;64.10
27492;DHT22;14927;51.210;6.838;2022-11-04T01:56:25;15.40;64.00
27492;DHT22;14927;51.210;6.838;2022-11-04T01:59:33;15.50;64.00
27492;DHT22;14927;51.210;6.838;2022-11-04T02:02:20;15.40;63.90
27492;DHT22;14927;51.210;6.838;2022-11-04T02:05:05;15.40;63.80
27492;DHT22;14927;51.210;6.838;2022-11-04T02:07:53;15.40;63.90
27492;DHT22;14927;51.210;6.838;2022-11-04T02:10:40;15.30;63.70
27492;DHT22;14927;51.210;6.838;2022-11-04T02:13:36;15.40;63.70
27492;DHT22;14927;51.210;6.838;2022-11-04T02:16:44;15.40;63.70
27492;DHT22;14927;51.210;6.838;2022-11-04T02:24:06;15.40;63.70
27492;DHT22;14927;51.210;6.838;2022-11-04T02:33:02;15.30;63.10
27492;DHT22;14927;51.210;6.838;2022-11-04T02:42:16;15.30;63.00
27492;DHT22;14927;51.210;6.838;2022-11-04T02:45:39;15.20;62.90
27492;DHT22;14927;51.210;6.838;2022-11-04T02:48:46;15.20;62.90
27492;DHT22;14927;51.210;6.838;2022-11-04T02:51:57;15.20;62.80
27492;DHT22;14927;51.210;6.838;2022-11-04T02:55:06;15.20;62.90
27492;DHT22;14927;51.210;6.838;2022-11-04T02:58:46;15.10;62.90
27492;DHT22;14927;51.210;6.838;2022-11-04T03:01:38;15.10;63.10
27492;DHT22;14927;51.210;6.838;2022-11-04T03:04:29;15.00;62.90
27492;DHT22;14927;51.210;6.838;2022-11-04T03:07:22;15.00;63.00
27492;DHT22;14927;51.210;6.838;2022-11-04T03:10:21;15.00;63.10
27492;DHT22;14927;51.210;6.838;2022-11-04T03:13:17;15.00;63.20
27492;DHT22;14927;51.210;6.838;2022-11-04T03:16:31;15.00;63.20
27492;DHT22;14927;51.210;6.838;2022-11-04T03:22:37;14.90;63.00
27492;DHT22;14927;51.210;6.838;2022-11-04T03:25:26;14.90;63.00
27492;DHT22;14927;51.210;6.838;2022-11-04T03:28:24;14.90;63.10
27492;DHT22;14927;51.210;6.838;2022-11-04T03:31:22;14.90;63.10
27492;DHT22;14927;51.210;6.838;2022-11-04T03:34:10;14.90;63.90
27492;DHT22;14927;51.210;6.838;2022-11-04T03:36:55;14.90;63.10
27492;DHT22;14927;51.210;6.838;2022-11-04T03:39:40;14.90;63.10
27492;DHT22;14927;51.210;6.838;2022-11-04T03:42:26;14.90;63.20
27492;DHT22;14927;51.210;6.838;2022-11-04T03:45:12;14.90;63.10
27492;DHT22;14927;51.210;6.838;2022-11-04T03:47:57;14.90;63.10
27492;DHT22;14927;51.210;6.838;2022-11-04T03:50:45;14.80;63.10
27492;DHT22;14927;51.210;6.838;2022-11-04T03:53:34;14.80;63.10
27492;DHT22;14927;51.210;6.838;2022-11-04T03:59:46;14.80;63.00
27492;DHT22;14927;51.210;6.838;2022-11-04T04:03:10;14.80;63.10
27492;DHT22;14927;51.210;6.838;2022-11-04T04:06:15;14.70;62.90
27492;DHT22;14927;51.210;6.838;2022-11-04T04:15:25;14.70;62.70
27492;DHT22;14927;51.210;6.838;2022-11-04T04:18:14;14.70;62.50
27492;DHT22;14927;51.210;6.838;2022-11-04T04:21:02;14.70;62.50
27492;DHT22;14927;51.210;6.838;2022-11-04T04:23:50;14.70;62.50
27492;DHT22;14927;51.210;6.838;2022-11-04T04:26:56;14.70;63.20
27492;DHT22;14927;51.210;6.838;2022-11-04T04:30:09;14.70;62.40
27492;DHT22;14927;51.210;6.838;2022-11-04T04:33:03;14.70;62.30
27492;DHT22;14927;51.210;6.838;2022-11-04T04:35:53;14.60;62.30
27492;DHT22;14927;51.210;6.838;2022-11-04T04:38:40;14.70;62.20
27492;DHT22;14927;51.210;6.838;2022-11-04T04:41:46;14.70;62.10
27492;DHT22;14927;51.210;6.838;2022-11-04T04:44:50;14.70;62.00
27492;DHT22;14927;51.210;6.838;2022-11-04T04:47:46;14.70;62.00
27492;DHT22;14927;51.210;6.838;2022-11-04T04:50:35;14.70;62.00
27492;DHT22;14927;51.210;6.838;2022-11-04T04:53:23;14.70;61.90
27492;DHT22;14927;51.210;6.838;2022-11-04T04:56:08;14.70;62.00
27492;DHT22;14927;51.210;6.838;2022-11-04T04:58:53;14.70;62.10
27492;DHT22;14927;51.210;6.838;2022-11-04T05:01:38;14.70;62.80
27492;DHT22;14927;51.210;6.838;2022-11-04T05:04:23;14.60;61.80
27492;DHT22;14927;51.210;6.838;2022-11-04T05:07:10;14.60;61.80
27492;DHT22;14927;51.210;6.838;2022-11-04T05:09:54;14.70;61.80
27492;DHT22;14927;51.210;6.838;2022-11-04T05:12:39;14.60;61.70
27492;DHT22;14927;51.210;6.838;2022-11-04T05:15:43;14.70;61.90
27492;DHT22;14927;51.210;6.838;2022-11-04T05:18:28;14.60;62.50
27492;DHT22;14927;51.210;6.838;2022-11-04T05:21:14;14.70;61.70
27492;DHT22;14927;51.210;6.838;2022-11-04T05:23:59;14.60;61.70
27492;DHT22;14927;51.210;6.838;2022-11-04T05:26:43;14.60;62.40
27492;DHT22;14927;51.210;6.838;2022-11-04T05:29:28;14.60;61.60
27492;DHT22;14927;51.210;6.838;2022-11-04T05:32:13;14.60;61.50
27492;DHT22;14927;51.210;6.838;2022-11-04T05:34:58;14.60;61.50
27492;DHT22;14927;51.210;6.838;2022-11-04T05:37:42;14.50;61.40
27492;DHT22;14927;51.210;6.838;2022-11-04T05:40:27;14.50;61.50
27492;DHT22;14927;51.210;6.838;2022-11-04T05:43:12;14.50;61.50
27492;DHT22;14927;51.210;6.838;2022-11-04T05:46:00;14.50;61.50
27492;DHT22;14927;51.210;6.838;2022-11-04T05:48:45;14.50;61.50
27492;DHT22;14927;51.210;6.838;2022-11-04T05:51:30;14.50;61.50
27492;DHT22;14927;51.210;6.838;2022-11-04T05:54:14;14.40;61.60
27492;DHT22;14927;51.210;6.838;2022-11-04T05:56:59;14.40;61.70
27492;DHT22;14927;51.210;6.838;2022-11-04T05:59:44;14.40;61.80
27492;DHT22;14927;51.210;6.838;2022-11-04T06:02:28;14.40;62.00
27492;DHT22;14927;51.210;6.838;2022-11-04T06:05:13;14.30;62.20
27492;DHT22;14927;51.210;6.838;2022-11-04T06:07:57;14.30;62.30
27492;DHT22;14927;51.210;6.838;2022-11-04T06:10:42;14.30;62.50
27492;DHT22;14927;51.210;6.838;2022-11-04T06:13:26;14.20;62.50
27492;DHT22;14927;51.210;6.838;2022-11-04T06:16:11;14.20;62.70
27492;DHT22;14927;51.210;6.838;2022-11-04T06:18:55;14.20;62.90
27492;DHT22;14927;51.210;6.838;2022-11-04T06:21:40;14.10;63.00
27492;DHT22;14927;51.210;6.838;2022-11-04T06:24:25;14.10;63.10
27492;DHT22;14927;51.210;6.838;2022-11-04T06:27:09;14.10;63.30
27492;DHT22;14927;51.210;6.838;2022-11-04T06:29:54;14.00;63.30
27492;DHT22;14927;51.210;6.838;2022-11-04T06:32:39;14.00;63.50
27492;DHT22;14927;51.210;6.838;2022-11-04T06:35:24;14.00;63.60
27492;DHT22;14927;51.210;6.838;2022-11-04T06:38:08;14.00;63.80
27492;DHT22;14927;51.210;6.838;2022-11-04T06:40:53;14.00;64.00
27492;DHT22;14927;51.210;6.838;2022-11-04T06:43:38;14.00;64.20
27492;DHT22;14927;51.210;6.838;2022-11-04T06:46:31;14.00;64.30
27492;DHT22;14927;51.210;6.838;2022-11-04T06:49:20;14.00;64.40
27492;DHT22;14927;51.210;6.838;2022-11-04T06:52:06;13.90;64.40
27492;DHT22;14927;51.210;6.838;2022-11-04T06:54:50;13.90;64.40
27492;DHT22;14927;51.210;6.838;2022-11-04T06:57:35;13.90;64.50
27492;DHT22;14927;51.210;6.838;2022-11-04T07:00:20;14.00;64.60
27492;DHT22;14927;51.210;6.838;2022-11-04T07:03:04;14.00;64.70
27492;DHT22;14927;51.210;6.838;2022-11-04T07:05:49;13.90;64.70
27492;DHT22;14927;51.210;6.838;2022-11-04T07:08:34;14.00;64.70
27492;DHT22;14927;51.210;6.838;2022-11-04T07:11:20;14.00;64.70
27492;DHT22;14927;51.210;6.838;2022-11-04T07:14:05;14.00;64.80
27492;DHT22;14927;51.210;6.838;2022-11-04T07:16:50;14.00;64.80
27492;DHT22;14927;51.210;6.838;2022-11-04T07:19:34;14.00;64.80
27492;DHT22;14927;51.210;6.838;2022-11-04T07:22:19;14.10;64.90
27492;DHT22;14927;51.210;6.838;2022-11-04T07:25:04;14.00;64.80
27492;DHT22;14927;51.210;6.838;2022-11-04T07:27:49;14.10;64.90
27492;DHT22;14927;51.210;6.838;2022-11-04T07:30:33;14.10;65.00
27492;DHT22;14927;51.210;6.838;2022-11-04T07:33:18;14.10;65.00
27492;DHT22;14927;51.210;6.838;2022-11-04T07:36:09;14.10;64.90
27492;DHT22;14927;51.210;6.838;2022-11-04T07:38:55;14.10;64.90
27492;DHT22;14927;51.210;6.838;2022-11-04T07:41:39;14.10;64.80
27492;DHT22;14927;51.210;6.838;2022-11-04T07:44:25;14.20;64.80
27492;DHT22;14927;51.210;6.838;2022-11-04T07:47:10;14.20;64.70
27492;DHT22;14927;51.210;6.838;2022-11-04T07:49:54;14.30;64.70
27492;DHT22;14927;51.210;6.838;2022-11-04T07:52:39;14.30;64.60
27492;DHT22;14927;51.210;6.838;2022-11-04T07:55:24;14.30;64.50
27492;DHT22;14927;51.210;6.838;2022-11-04T07:58:09;14.30;64.50
27492;DHT22;14927;51.210;6.838;2022-11-04T08:01:00;14.30;64.60
27492;DHT22;14927;51.210;6.838;2022-11-04T08:03:46;14.30;64.50
27492;DHT22;14927;51.210;6.838;2022-11-04T08:06:31;14.40;64.40
27492;DHT22;14927;51.210;6.838;2022-11-04T08:09:15;14.40;64.30
27492;DHT22;14927;51.210;6.838;2022-11-04T08:12:00;14.40;64.40
27492;DHT22;14927;51.210;6.838;2022-11-04T08:14:44;14.40;64.50
27492;DHT22;14927;51.210;6.838;2022-11-04T08:17:29;14.50;64.60
27492;DHT22;14927;51.210;6.838;2022-11-04T08:20:14;14.60;64.80
27492;DHT22;14927;51.210;6.838;2022-11-04T08:22:59;14.50;64.80
27492;DHT22;14927;51.210;6.838;2022-11-04T08:25:44;14.50;64.90
27492;DHT22;14927;51.210;6.838;2022-11-04T08:28:28;14.50;65.20
27492;DHT22;14927;51.210;6.838;2022-11-04T08:31:15;14.50;65.40
27492;DHT22;14927;51.210;6.838;2022-11-04T08:34:01;14.50;65.80
27492;DHT22;14927;51.210;6.838;2022-11-04T08:36:45;14.60;66.00
27492;DHT22;14927;51.210;6.838;2022-11-04T08:39:30;14.70;66.00
27492;DHT22;14927;51.210;6.838;2022-11-04T08:42:15;14.60;66.00
27492;DHT22;14927;51.210;6.838;2022-11-04T08:44:59;14.60;66.10
27492;DHT22;14927;51.210;6.838;2022-11-04T08:47:44;14.60;66.10
27492;DHT22;14927;51.210;6.838;2022-11-04T08:50:29;14.80;66.40
27492;DHT22;14927;51.210;6.838;2022-11-04T08:53:14;14.70;66.40
27492;DHT22;14927;51.210;6.838;2022-11-04T08:55:59;14.70;66.40
27492;DHT22;14927;51.210;6.838;2022-11-04T08:58:43;14.70;66.40
27492;DHT22;14927;51.210;6.838;2022-11-04T09:01:29;14.70;66.50
27492;DHT22;14927;51.210;6.838;2022-11-04T09:04:16;14.80;66.70
27492;DHT22;14927;51.210;6.838;2022-11-04T09:07:01;14.80;66.80
27492;DHT22;14927;51.210;6.838;2022-11-04T09:09:46;14.80;66.90
27492;DHT22;14927;51.210;6.838;2022-11-04T09:12:31;14.80;66.80
27492;DHT22;14927;51.210;6.838;2022-11-04T09:15:16;14.90;66.80
27492;DHT22;14927;51.210;6.838;2022-11-04T09:18:00;14.90;66.90
27492;DHT22;14927;51.210;6.838;2022-11-04T09:20:45;15.00;67.10
27492;DHT22;14927;51.210;6.838;2022-11-04T09:23:30;15.10;67.30
27492;DHT22;14927;51.210;6.838;2022-11-04T09:26:15;15.00;67.30
27492;DHT22;14927;51.210;6.838;2022-11-04T09:28:59;15.10;67.30
27492;DHT22;14927;51.210;6.838;2022-11-04T09:31:44;15.10;67.30
27492;DHT22;14927;51.210;6.838;2022-11-04T09:34:29;15.20;67.40
27492;DHT22;14927;51.210;6.838;2022-11-04T09:37:14;15.30;67.20
27492;DHT22;14927;51.210;6.838;2022-11-04T09:39:59;15.30;66.90
27492;DHT22;14927;51.210;6.838;2022-11-04T09:43:00;15.40;66.80
27492;DHT22;14927;51.210;6.838;2022-11-04T09:46:03;15.40;66.60
27492;DHT22;14927;51.210;6.838;2022-11-04T09:48:50;15.40;67.10
27492;DHT22;14927;51.210;6.838;2022-11-04T09:51:37;15.50;66.30
27492;DHT22;14927;51.210;6.838;2022-11-04T09:54:29;15.60;66.30
27492;DHT22;14927;51.210;6.838;2022-11-04T09:57:19;15.60;66.20
27492;DHT22;14927;51.210;6.838;2022-11-04T10:00:05;15.70;66.30
27492;DHT22;14927;51.210;6.838;2022-11-04T10:06:18;15.80;65.80
27492;DHT22;14927;51.210;6.838;2022-11-04T10:09:57;15.80;65.70
27492;DHT22;14927;51.210;6.838;2022-11-04T10:19:45;16.00;65.50
27492;DHT22;14927;51.210;6.838;2022-11-04T10:28:43;16.10;65.40
27492;DHT22;14927;51.210;6.838;2022-11-04T10:31:36;16.20;65.50
27492;DHT22;14927;51.210;6.838;2022-11-04T10:37:12;16.30;64.90
27492;DHT22;14927;51.210;6.838;2022-11-04T10:40:19;16.30;64.60
27492;DHT22;14927;51.210;6.838;2022-11-04T10:43:08;16.40;64.20
27492;DHT22;14927;51.210;6.838;2022-11-04T10:46:00;16.50;64.00
27492;DHT22;14927;51.210;6.838;2022-11-04T10:52:19;16.60;63.10
27492;DHT22;14927;51.210;6.838;2022-11-04T10:55:32;16.70;63.10
27492;DHT22;14927;51.210;6.838;2022-11-04T10:58:30;16.70;62.90
27492;DHT22;14927;51.210;6.838;2022-11-04T11:01:31;16.80;63.10
27492;DHT22;14927;51.210;6.838;2022-11-04T11:04:35;16.80;63.00
27492;DHT22;14927;51.210;6.838;2022-11-04T11:07:20;16.80;62.60
27492;DHT22;14927;51.210;6.838;2022-11-04T11:10:36;16.90;62.70
27492;DHT22;14927;51.210;6.838;2022-11-04T11:13:25;16.90;62.50
27492;DHT22;14927;51.210;6.838;2022-11-04T11:16:20;16.90;62.30
27492;DHT22;14927;51.210;6.838;2022-11-04T11:22:00;17.00;61.10
27492;DHT22;14927;51.210;6.838;2022-11-04T11:24:45;17.00;61.00
27492;DHT22;14927;51.210;6.838;2022-11-04T11:27:29;17.00;61.10
27492;DHT22;14927;51.210;6.838;2022-11-04T11:30:31;17.10;61.20
27492;DHT22;14927;51.210;6.838;2022-11-04T11:33:19;17.10;60.90
27492;DHT22;14927;51.210;6.838;2022-11-04T11:36:09;17.10;61.20
27492;DHT22;14927;51.210;6.838;2022-11-04T11:42:07;17.10;61.30
27492;DHT22;14927;51.210;6.838;2022-11-04T11:44:57;17.10;61.30
27492;DHT22;14927;51.210;6.838;2022-11-04T11:47:43;17.20;61.10
27492;DHT22;14927;51.210;6.838;2022-11-04T11:50:29;17.20;61.10
27492;DHT22;14927;51.210;6.838;2022-11-04T11:53:18;17.20;61.20
27492;DHT22;14927;51.210;6.838;2022-11-04T11:56:31;17.20;61.20
27492;DHT22;14927;51.210;6.838;2022-11-04T11:59:52;17.20;60.60
27492;DHT22;14927;51.210;6.838;2022-11-04T12:02:52;17.30;60.50
27492;DHT22;14927;51.210;6.838;2022-11-04T12:06:02;17.30;60.10
27492;DHT22;14927;51.210;6.838;2022-11-04T12:09:02;17.30;59.40
27492;DHT22;14927;51.210;6.838;2022-11-04T12:12:09;17.40;59.60
27492;DHT22;14927;51.210;6.838;2022-11-04T12:18:43;17.40;59.10
27492;DHT22;14927;51.210;6.838;2022-11-04T12:22:02;17.40;58.90
27492;DHT22;14927;51.210;6.838;2022-11-04T12:25:43;17.40;58.90
27492;DHT22;14927;51.210;6.838;2022-11-04T12:28:58;17.40;59.60
27492;DHT22;14927;51.210;6.838;2022-11-04T12:41:22;17.30;60.60
27492;DHT22;14927;51.210;6.838;2022-11-04T12:47:30;17.20;61.50
27492;DHT22;14927;51.210;6.838;2022-11-04T12:56:40;17.20;62.40
27492;DHT22;14927;51.210;6.838;2022-11-04T13:02:48;17.10;63.00
27492;DHT22;14927;51.210;6.838;2022-11-04T13:08:52;17.20;65.70
27492;DHT22;14927;51.210;6.838;2022-11-04T13:12:02;17.30;65.60
27492;DHT22;14927;51.210;6.838;2022-11-04T13:15:01;17.60;65.10
27492;DHT22;14927;51.210;6.838;2022-11-04T13:17:52;17.70;63.70
27492;DHT22;14927;51.210;6.838;2022-11-04T13:26:47;17.90;61.70
27492;DHT22;14927;51.210;6.838;2022-11-04T13:29:33;17.90;61.60
27492;DHT22;14927;51.210;6.838;2022-11-04T13:33:10;17.90;61.60
27492;DHT22;14927;51.210;6.838;2022-11-04T13:38:52;18.10;60.50
27492;DHT22;14927;51.210;6.838;2022-11-04T13:44:57;18.10;58.60
27492;DHT22;14927;51.210;6.838;2022-11-04T13:50:36;18.10;58.80
27492;DHT22;14927;51.210;6.838;2022-11-04T13:56:40;18.10;58.20
27492;DHT22;14927;51.210;6.838;2022-11-04T13:59:27;18.10;58.40
27492;DHT22;14927;51.210;6.838;2022-11-04T14:04:57;18.10;58.00
27492;DHT22;14927;51.210;6.838;2022-11-04T14:08:14;18.10;57.70
27492;DHT22;14927;51.210;6.838;2022-11-04T14:11:03;18.10;58.00
27492;DHT22;14927;51.210;6.838;2022-11-04T14:14:00;18.10;58.20
27492;DHT22;14927;51.210;6.838;2022-11-04T14:16:45;18.10;58.00
27492;DHT22;14927;51.210;6.838;2022-11-04T14:19:56;18.20;58.20
27492;DHT22;14927;51.210;6.838;2022-11-04T14:22:48;18.20;58.00
27492;DHT22;14927;51.210;6.838;2022-11-04T14:25:40;18.10;58.10
27492;DHT22;14927;51.210;6.838;2022-11-04T14:28:28;18.10;58.20
27492;DHT22;14927;51.210;6.838;2022-11-04T14:31:35;18.10;58.30
27492;DHT22;14927;51.210;6.838;2022-11-04T14:34:32;18.10;58.10
27492;DHT22;14927;51.210;6.838;2022-11-04T14:37:22;18.10;58.20
27492;DHT22;14927;51.210;6.838;2022-11-04T14:40:25;18.10;58.10
27492;DHT22;14927;51.210;6.838;2022-11-04T14:43:30;18.10;57.90
27492;DHT22;14927;51.210;6.838;2022-11-04T14:46:21;18.00;58.20
27492;DHT22;14927;51.210;6.838;2022-11-04T14:55:28;17.90;58.50
27492;DHT22;14927;51.210;6.838;2022-11-04T14:58:22;17.80;58.60
27492;DHT22;14927;51.210;6.838;2022-11-04T15:01:08;17.80;58.80
27492;DHT22;14927;51.210;6.838;2022-11-04T15:04:05;17.70;58.80
27492;DHT22;14927;51.210;6.838;2022-11-04T15:06:58;17.70;58.80
27492;DHT22;14927;51.210;6.838;2022-11-04T15:09:47;17.60;58.80
27492;DHT22;14927;51.210;6.838;2022-11-04T15:12:33;17.60;59.00
27492;DHT22;14927;51.210;6.838;2022-11-04T15:15:41;17.50;59.30
27492;DHT22;14927;51.210;6.838;2022-11-04T15:18:32;17.50;59.50
27492;DHT22;14927;51.210;6.838;2022-11-04T15:21:16;17.50;59.70
27492;DHT22;14927;51.210;6.838;2022-11-04T15:24:01;17.40;59.50
27492;DHT22;14927;51.210;6.838;2022-11-04T15:26:54;17.40;59.20
27492;DHT22;14927;51.210;6.838;2022-11-04T15:29:56;17.40;58.90
27492;DHT22;14927;51.210;6.838;2022-11-04T15:32:52;17.30;58.90
27492;DHT22;14927;51.210;6.838;2022-11-04T15:35:38;17.30;58.90
27492;DHT22;14927;51.210;6.838;2022-11-04T15:38:26;17.30;58.90
27492;DHT22;14927;51.210;6.838;2022-11-04T15:41:13;17.20;59.00
27492;DHT22;14927;51.210;6.838;2022-11-04T15:44:19;17.20;59.20
27492;DHT22;14927;51.210;6.838;2022-11-04T15:50:23;17.10;59.50
27492;DHT22;14927;51.210;6.838;2022-11-04T15:53:09;17.10;59.60
27492;DHT22;14927;51.210;6.838;2022-11-04T15:55:54;17.00;59.50
27492;DHT22;14927;51.210;6.838;2022-11-04T15:58:40;17.00;59.50
27492;DHT22;14927;51.210;6.838;2022-11-04T16:01:26;17.00;59.60
27492;DHT22;14927;51.210;6.838;2022-11-04T16:04:12;17.00;59.80
27492;DHT22;14927;51.210;6.838;2022-11-04T16:09:53;16.90;60.30
27492;DHT22;14927;51.210;6.838;2022-11-04T16:12:42;16.90;60.50
27492;DHT22;14927;51.210;6.838;2022-11-04T16:16:20;16.80;60.70
27492;DHT22;14927;51.210;6.838;2022-11-04T16:19:17;16.80;61.00
27492;DHT22;14927;51.210;6.838;2022-11-04T16:22:07;16.80;60.80
27492;DHT22;14927;51.210;6.838;2022-11-04T16:24:55;16.70;61.00
27492;DHT22;14927;51.210;6.838;2022-11-04T16:27:44;16.70;61.30
27492;DHT22;14927;51.210;6.838;2022-11-04T16:30:28;16.70;61.50
27492;DHT22;14927;51.210;6.838;2022-11-04T16:33:16;16.60;61.60
27492;DHT22;14927;51.210;6.838;2022-11-04T16:36:10;16.60;61.60
27492;DHT22;14927;51.210;6.838;2022-11-04T16:38:58;16.60;61.40
27492;DHT22;14927;51.210;6.838;2022-11-04T16:41:46;16.60;61.40
27492;DHT22;14927;51.210;6.838;2022-11-04T16:44:31;16.60;61.60
27492;DHT22;14927;51.210;6.838;2022-11-04T16:47:17;16.50;61.60
27492;DHT22;14927;51.210;6.838;2022-11-04T16:50:15;16.50;61.70
27492;DHT22;14927;51.210;6.838;2022-11-04T16:53:01;16.50;61.90
27492;DHT22;14927;51.210;6.838;2022-11-04T16:55:46;16.50;61.90
27492;DHT22;14927;51.210;6.838;2022-11-04T16:58:31;16.40;61.90
27492;DHT22;14927;51.210;6.838;2022-11-04T17:01:16;16.40;61.90
27492;DHT22;14927;51.210;6.838;2022-11-04T17:04:02;16.40;62.00
27492;DHT22;14927;51.210;6.838;2022-11-04T17:06:49;16.40;62.00
27492;DHT22;14927;51.210;6.838;2022-11-04T17:09:34;16.40;62.10
27492;DHT22;14927;51.210;6.838;2022-11-04T17:12:18;16.40;62.20
27492;DHT22;14927;51.210;6.838;2022-11-04T17:15:03;16.40;62.40
27492;DHT22;14927;51.210;6.838;2022-11-04T17:17:48;16.40;62.70
27492;DHT22;14927;51.210;6.838;2022-11-04T17:20:33;16.40;62.90
27492;DHT22;14927;51.210;6.838;2022-11-04T17:23:17;16.40;63.00
27492;DHT22;14927;51.210;6.838;2022-11-04T17:26:03;16.30;63.10
27492;DHT22;14927;51.210;6.838;2022-11-04T17:28:47;16.40;63.10
27492;DHT22;14927;51.210;6.838;2022-11-04T17:31:32;16.40;63.30
27492;DHT22;14927;51.210;6.838;2022-11-04T17:34:18;16.30;63.30
27492;DHT22;14927;51.210;6.838;2022-11-04T17:37:03;16.30;63.40
27492;DHT22;14927;51.210;6.838;2022-11-04T17:39:48;16.30;63.40
27492;DHT22;14927;51.210;6.838;2022-11-04T17:42:32;16.10;63.40
27492;DHT22;14927;51.210;6.838;2022-11-04T17:45:35;16.30;63.70
27492;DHT22;14927;51.210;6.838;2022-11-04T17:48:20;16.30;63.70
27492;DHT22;14927;51.210;6.838;2022-11-04T17:51:06;16.30;63.70
27492;DHT22;14927;51.210;6.838;2022-11-04T17:53:51;16.30;63.70
27492;DHT22;14927;51.210;6.838;2022-11-04T17:56:36;16.30;63.80
27492;DHT22;14927;51.210;6.838;2022-11-04T17:59:21;16.20;63.70
27492;DHT22;14927;51.210;6.838;2022-11-04T18:02:07;16.20;63.80
27492;DHT22;14927;51.210;6.838;2022-11-04T18:04:51;16.30;64.00
27492;DHT22;14927;51.210;6.838;2022-11-04T18:07:36;16.20;64.80
27492;DHT22;14927;51.210;6.838;2022-11-04T18:10:21;16.20;64.10
27492;DHT22;14927;51.210;6.838;2022-11-04T18:13:05;16.20;64.30
27492;DHT22;14927;51.210;6.838;2022-11-04T18:15:50;16.20;64.40
27492;DHT22;14927;51.210;6.838;2022-11-04T18:18:34;16.10;64.40
27492;DHT22;14927;51.210;6.838;2022-11-04T18:21:19;16.10;64.60
27492;DHT22;14927;51.210;6.838;2022-11-04T18:24:04;16.10;64.60
27492;DHT22;14927;51.210;6.838;2022-11-04T18:26:49;16.10;64.70
27492;DHT22;14927;51.210;6.838;2022-11-04T18:29:34;16.10;64.80
27492;DHT22;14927;51.210;6.838;2022-11-04T18:32:18;16.10;64.80
27492;DHT22;14927;51.210;6.838;2022-11-04T18:35:03;16.10;64.80
27492;DHT22;14927;51.210;6.838;2022-11-04T18:37:48;16.10;64.80
27492;DHT22;14927;51.210;6.838;2022-11-04T18:40:33;16.10;64.70
27492;DHT22;14927;51.210;6.838;2022-11-04T18:43:17;16.00;64.60
27492;DHT22;14927;51.210;6.838;2022-11-04T18:46:10;16.00;64.60
27492;DHT22;14927;51.210;6.838;2022-11-04T18:48:56;16.00;64.80
27492;DHT22;14927;51.210;6.838;2022-11-04T18:51:41;16.00;64.80
27492;DHT22;14927;51.210;6.838;2022-11-04T18:54:26;15.90;64.80
27492;DHT22;14927;51.210;6.838;2022-11-04T18:57:10;15.90;64.80
27492;DHT22;14927;51.210;6.838;2022-11-04T18:59:55;15.90;64.90
27492;DHT22;14927;51.210;6.838;2022-11-04T19:02:40;15.90;64.90
27492;DHT22;14927;51.210;6.838;2022-11-04T19:05:25;15.90;64.90
27492;DHT22;14927;51.210;6.838;2022-11-04T19:08:09;15.90;64.90
27492;DHT22;14927;51.210;6.838;2022-11-04T19:10:54;15.80;64.90
27492;DHT22;14927;51.210;6.838;2022-11-04T19:13:39;15.90;65.00
27492;DHT22;14927;51.210;6.838;2022-11-04T19:16:25;15.80;64.80
27492;DHT22;14927;51.210;6.838;2022-11-04T19:19:13;15.80;64.80
27492;DHT22;14927;51.210;6.838;2022-11-04T19:22:01;15.80;64.90
27492;DHT22;14927;51.210;6.838;2022-11-04T19:24:45;15.70;64.90
27492;DHT22;14927;51.210;6.838;2022-11-04T19:27:30;15.70;65.00
27492;DHT22;14927;51.210;6.838;2022-11-04T19:30:15;15.70;65.10
27492;DHT22;14927;51.210;6.838;2022-11-04T19:32:59;15.60;65.00
27492;DHT22;14927;51.210;6.838;2022-11-04T19:35:44;15.60;65.00
27492;DHT22;14927;51.210;6.838;2022-11-04T19:38:29;15.60;65.00
27492;DHT22;14927;51.210;6.838;2022-11-04T19:41:16;15.60;65.10
27492;DHT22;14927;51.210;6.838;2022-11-04T19:44:20;15.50;65.20
27492;DHT22;14927;51.210;6.838;2022-11-04T19:47:07;15.50;66.10
27492;DHT22;14927;51.210;6.838;2022-11-04T19:49:52;15.40;65.50
27492;DHT22;14927;51.210;6.838;2022-11-04T19:52:37;15.40;65.70
27492;DHT22;14927;51.210;6.838;2022-11-04T19:55:22;15.40;65.90
27492;DHT22;14927;51.210;6.838;2022-11-04T19:58:06;15.40;66.10